Virgil East

*Note: All times are displayed in the local standard time of the station location.
**Rain - Equipment is designed to accurately record liquid precipitation; under conditions when precipitation is not in liquid form, the data displayed may not properly reflect rainfall values.

Date Max Temp
(°C)
Min Temp
(°C)
Avg Temp
(°C)
Rain (mm) Avg RH (%)
Thu, Jul 18, 2019 28.4 19.3 23.9 0.0 96.0
Wed, Jul 17, 2019 28.2 20.5 23.1 13.0 99.0
Tue, Jul 16, 2019 31.4 19.4 24.6 8.6 89.1
Mon, Jul 15, 2019 29.4 10.9 21.1 0.0 81.8
Sun, Jul 14, 2019 27.5 15.5 21.8 0.0 79.3
Sat, Jul 13, 2019 28.7 12.0 21.9 0.0 88.1
Fri, Jul 12, 2019 23.2 16.0 19.5 0.0 92.5
DateTime Avg Temp (°C) Rain (mm) RH (%)
Fri, Jul 19, 2019 10:00 27.9 0.0 96.8
Fri, Jul 19, 2019 09:00 26.9 0.0 98.6
Fri, Jul 19, 2019 08:00 25.5 0.0 99.9
Fri, Jul 19, 2019 07:00 24.1 0.0 99.9
Fri, Jul 19, 2019 06:00 24.0 0.0 99.9
Fri, Jul 19, 2019 05:00 24.1 0.0 99.9
Fri, Jul 19, 2019 04:00 24.2 0.0 99.7
Fri, Jul 19, 2019 03:00 24.0 0.0 99.8
Fri, Jul 19, 2019 02:00 23.4 0.0 99.4
Fri, Jul 19, 2019 01:00 22.6 0.0 99.8
Fri, Jul 19, 2019 00:00 21.5 0.0 99.9
Thu, Jul 18, 2019 23:00 22.1 0.0 99.9
Thu, Jul 18, 2019 22:00 23.0 0.0 99.9
Thu, Jul 18, 2019 21:00 24.0 0.0 95.4
Thu, Jul 18, 2019 20:00 26.6 0.0 85.5
Thu, Jul 18, 2019 19:00 27.9 0.0 87.9
Thu, Jul 18, 2019 18:00 28.1 0.0 87.3
Thu, Jul 18, 2019 17:00 27.8 0.0 90.6
Thu, Jul 18, 2019 16:00 27.0 0.0 94.2
Thu, Jul 18, 2019 15:00 27.1 0.0 94.0
Thu, Jul 18, 2019 14:00 27.1 0.0 93.9
Thu, Jul 18, 2019 13:00 27.4 0.0 89.0
Thu, Jul 18, 2019 12:00 26.8 0.0 91.5
Thu, Jul 18, 2019 11:00 25.9 0.0 95.1
Thu, Jul 18, 2019 10:00 24.2 0.0 99.9
Thu, Jul 18, 2019 09:00 22.5 0.0 99.9
Thu, Jul 18, 2019 08:00 21.3 0.0 99.9
Thu, Jul 18, 2019 07:00 21.0 0.0 99.9
Thu, Jul 18, 2019 06:00 20.9 0.0 99.9
Thu, Jul 18, 2019 05:00 20.9 0.0 99.9
Thu, Jul 18, 2019 04:00 21.0 0.0 99.9
Thu, Jul 18, 2019 03:00 20.5 0.0 99.9
Thu, Jul 18, 2019 02:00 19.5 0.0 99.9
Thu, Jul 18, 2019 01:00 20.1 0.0 99.9
Thu, Jul 18, 2019 00:00 20.9 0.0 99.9
Wed, Jul 17, 2019 23:00 21.7 0.0 99.9
Wed, Jul 17, 2019 22:00 21.8 0.0 99.9
Wed, Jul 17, 2019 21:00 23.4 0.0 99.9
Wed, Jul 17, 2019 20:00 25.3 0.0 99.3
Wed, Jul 17, 2019 19:00 26.7 0.0 96.2
Wed, Jul 17, 2019 18:00 27.7 0.0 93.6
Wed, Jul 17, 2019 17:00 27.3 0.0 93.9
Wed, Jul 17, 2019 16:00 26.1 0.0 96.0
Wed, Jul 17, 2019 15:00 24.8 0.0 99.9
Wed, Jul 17, 2019 14:00 23.9 0.2 99.9
Wed, Jul 17, 2019 13:00 22.9 1.8 99.9
Wed, Jul 17, 2019 12:00 22.7 2.4 99.9
Wed, Jul 17, 2019 11:00 22.5 0.2 99.9


asterix Register now to access more data! asterix